ENRS/RET METAR and TAF weather

Enter ICAO airport designator
Station Type Date Time Source
ENRS METAR 2020/09/18 17:50 UTC NOAA

ENRS 181750Z 27027KT 9999 -SHRA FEW010CB BKN035 09/06 Q1013


Station Type Date Time Source
ENRS Decoded METAR 2020/09/18 17:50 UTC NOAA

Rost Flyplass, Norway (ENRS) 67-31N 012-06E
Sep 18, 2020 - 01:50 PM EDT / 2020.09.18 1750 UTC
Wind: from the W (270 degrees) at 31 MPH (27 KT):0
Visibility: greater than 7 mile(s):0
Sky conditions: mostly cloudy
Weather: light rain showers; Cumulonimbus clouds observed
Temperature: 48 F (9 C)
Dew Point: 42 F (6 C)
Relative Humidity: 81%
Pressure (altimeter): 29.91 in. Hg (1013 hPa)
ob: ENRS 181750Z 27027KT 9999 -SHRA FEW010CB BKN035 09/06 Q1013
cycle: 18

Station Type Date Time Source
ENRS TAF UTC NOAA

Error!

Example: see airport list